sensor_id;sensor_type;location;lat;lon;timestamp;P1;durP1;ratioP1;P2;durP2;ratioP2
48845;SDS011;34665;51.886;5.436;2024-02-23T00:01:44;0.22;;;0.22;;
48845;SDS011;34665;51.886;5.436;2024-02-23T00:04:09;0.10;;;0.10;;
48845;SDS011;34665;51.886;5.436;2024-02-23T00:06:35;0.20;;;0.20;;
48845;SDS011;34665;51.886;5.436;2024-02-23T00:09:00;0.20;;;0.20;;
48845;SDS011;34665;51.886;5.436;2024-02-23T00:11:26;4.28;;;1.65;;
48845;SDS011;34665;51.886;5.436;2024-02-23T00:13:53;2.58;;;1.30;;
48845;SDS011;34665;51.886;5.436;2024-02-23T00:16:18;0.20;;;0.20;;
48845;SDS011;34665;51.886;5.436;2024-02-23T00:18:45;0.10;;;0.10;;
48845;SDS011;34665;51.886;5.436;2024-02-23T00:21:10;0.10;;;0.10;;
48845;SDS011;34665;51.886;5.436;2024-02-23T00:23:36;0.32;;;0.32;;
48845;SDS011;34665;51.886;5.436;2024-02-23T00:26:01;0.33;;;0.33;;
48845;SDS011;34665;51.886;5.436;2024-02-23T00:28:27;0.35;;;0.35;;
48845;SDS011;34665;51.886;5.436;2024-02-23T00:30:52;0.85;;;0.85;;
48845;SDS011;34665;51.886;5.436;2024-02-23T00:33:18;0.28;;;0.28;;
48845;SDS011;34665;51.886;5.436;2024-02-23T00:35:44;13.90;;;2.83;;
48845;SDS011;34665;51.886;5.436;2024-02-23T00:38:09;0.27;;;0.27;;
48845;SDS011;34665;51.886;5.436;2024-02-23T00:40:34;0.20;;;0.20;;
48845;SDS011;34665;51.886;5.436;2024-02-23T00:43:00;0.20;;;0.20;;
48845;SDS011;34665;51.886;5.436;2024-02-23T00:45:26;0.20;;;0.20;;
48845;SDS011;34665;51.886;5.436;2024-02-23T00:47:51;0.22;;;0.22;;
48845;SDS011;34665;51.886;5.436;2024-02-23T00:50:17;0.83;;;0.83;;
48845;SDS011;34665;51.886;5.436;2024-02-23T00:52:42;0.20;;;0.20;;
48845;SDS011;34665;51.886;5.436;2024-02-23T00:55:07;0.43;;;0.43;;
48845;SDS011;34665;51.886;5.436;2024-02-23T00:57:33;0.20;;;0.20;;
48845;SDS011;34665;51.886;5.436;2024-02-23T00:59:59;1.75;;;0.90;;
48845;SDS011;34665;51.886;5.436;2024-02-23T01:04:51;0.50;;;0.50;;
48845;SDS011;34665;51.886;5.436;2024-02-23T01:07:21;0.68;;;0.68;;
48845;SDS011;34665;51.886;5.436;2024-02-23T01:09:47;0.33;;;0.33;;
48845;SDS011;34665;51.886;5.436;2024-02-23T01:12:12;0.20;;;0.20;;
48845;SDS011;34665;51.886;5.436;2024-02-23T01:14:37;0.20;;;0.20;;
48845;SDS011;34665;51.886;5.436;2024-02-23T01:17:02;6.07;;;2.63;;
48845;SDS011;34665;51.886;5.436;2024-02-23T01:19:28;0.20;;;0.20;;
48845;SDS011;34665;51.886;5.436;2024-02-23T01:21:53;1.27;;;1.20;;
48845;SDS011;34665;51.886;5.436;2024-02-23T01:24:27;7.93;;;2.08;;
48845;SDS011;34665;51.886;5.436;2024-02-23T01:26:54;0.82;;;0.82;;
48845;SDS011;34665;51.886;5.436;2024-02-23T01:29:21;0.32;;;0.32;;
48845;SDS011;34665;51.886;5.436;2024-02-23T01:31:48;0.47;;;0.47;;
48845;SDS011;34665;51.886;5.436;2024-02-23T01:34:13;0.75;;;0.75;;
48845;SDS011;34665;51.886;5.436;2024-02-23T01:36:38;0.20;;;0.20;;
48845;SDS011;34665;51.886;5.436;2024-02-23T01:39:04;0.20;;;0.20;;
48845;SDS011;34665;51.886;5.436;2024-02-23T01:41:30;0.32;;;0.32;;
48845;SDS011;34665;51.886;5.436;2024-02-23T01:43:56;1.43;;;1.40;;
48845;SDS011;34665;51.886;5.436;2024-02-23T01:46:21;0.20;;;0.20;;
48845;SDS011;34665;51.886;5.436;2024-02-23T01:48:46;0.60;;;0.60;;
48845;SDS011;34665;51.886;5.436;2024-02-23T01:51:12;0.37;;;0.37;;
48845;SDS011;34665;51.886;5.436;2024-02-23T01:53:38;0.20;;;0.20;;
48845;SDS011;34665;51.886;5.436;2024-02-23T01:56:04;1.57;;;0.97;;
48845;SDS011;34665;51.886;5.436;2024-02-23T01:58:30;0.27;;;0.27;;
48845;SDS011;34665;51.886;5.436;2024-02-23T02:00:56;0.28;;;0.28;;
48845;SDS011;34665;51.886;5.436;2024-02-23T02:03:22;0.20;;;0.20;;
48845;SDS011;34665;51.886;5.436;2024-02-23T02:05:47;0.20;;;0.20;;
48845;SDS011;34665;51.886;5.436;2024-02-23T02:08:14;6.68;;;1.27;;
48845;SDS011;34665;51.886;5.436;2024-02-23T02:10:40;6.47;;;2.75;;
48845;SDS011;34665;51.886;5.436;2024-02-23T02:13:05;0.30;;;0.30;;
48845;SDS011;34665;51.886;5.436;2024-02-23T02:15:31;2.10;;;1.85;;
48845;SDS011;34665;51.886;5.436;2024-02-23T02:17:56;0.20;;;0.20;;
48845;SDS011;34665;51.886;5.436;2024-02-23T02:20:24;0.20;;;0.20;;
48845;SDS011;34665;51.886;5.436;2024-02-23T02:22:50;3.13;;;2.70;;
48845;SDS011;34665;51.886;5.436;2024-02-23T02:25:16;0.30;;;0.30;;
48845;SDS011;34665;51.886;5.436;2024-02-23T02:27:41;0.20;;;0.20;;
48845;SDS011;34665;51.886;5.436;2024-02-23T02:30:06;0.10;;;0.10;;
48845;SDS011;34665;51.886;5.436;2024-02-23T02:32:32;0.20;;;0.20;;
48845;SDS011;34665;51.886;5.436;2024-02-23T02:34:58;2.92;;;1.85;;
48845;SDS011;34665;51.886;5.436;2024-02-23T02:37:23;0.20;;;0.20;;
48845;SDS011;34665;51.886;5.436;2024-02-23T02:39:48;24.50;;;2.73;;
48845;SDS011;34665;51.886;5.436;2024-02-23T02:42:14;1.20;;;0.90;;
48845;SDS011;34665;51.886;5.436;2024-02-23T02:44:39;1.80;;;1.70;;
48845;SDS011;34665;51.886;5.436;2024-02-23T02:47:04;0.20;;;0.20;;
48845;SDS011;34665;51.886;5.436;2024-02-23T02:49:29;0.27;;;0.27;;
48845;SDS011;34665;51.886;5.436;2024-02-23T02:51:55;1.00;;;1.00;;
48845;SDS011;34665;51.886;5.436;2024-02-23T02:54:20;1.90;;;1.70;;
48845;SDS011;34665;51.886;5.436;2024-02-23T02:56:47;0.20;;;0.20;;
48845;SDS011;34665;51.886;5.436;2024-02-23T02:59:13;0.32;;;0.32;;
48845;SDS011;34665;51.886;5.436;2024-02-23T03:01:38;0.20;;;0.20;;
48845;SDS011;34665;51.886;5.436;2024-02-23T03:04:04;0.20;;;0.20;;
48845;SDS011;34665;51.886;5.436;2024-02-23T03:06:29;0.20;;;0.20;;
48845;SDS011;34665;51.886;5.436;2024-02-23T03:08:55;0.20;;;0.20;;
48845;SDS011;34665;51.886;5.436;2024-02-23T03:11:20;0.20;;;0.20;;
48845;SDS011;34665;51.886;5.436;2024-02-23T03:13:46;0.20;;;0.20;;
48845;SDS011;34665;51.886;5.436;2024-02-23T03:16:15;0.20;;;0.20;;
48845;SDS011;34665;51.886;5.436;2024-02-23T03:18:41;0.20;;;0.20;;
48845;SDS011;34665;51.886;5.436;2024-02-23T03:21:07;0.20;;;0.20;;
48845;SDS011;34665;51.886;5.436;2024-02-23T03:23:35;0.20;;;0.20;;
48845;SDS011;34665;51.886;5.436;2024-02-23T03:26:00;2.50;;;1.95;;
48845;SDS011;34665;51.886;5.436;2024-02-23T03:28:25;1.07;;;0.97;;
48845;SDS011;34665;51.886;5.436;2024-02-23T03:30:51;0.20;;;0.20;;
48845;SDS011;34665;51.886;5.436;2024-02-23T03:33:16;2.87;;;2.70;;
48845;SDS011;34665;51.886;5.436;2024-02-23T03:35:42;0.20;;;0.20;;
48845;SDS011;34665;51.886;5.436;2024-02-23T03:38:07;0.47;;;0.47;;
48845;SDS011;34665;51.886;5.436;2024-02-23T03:40:34;0.20;;;0.20;;
48845;SDS011;34665;51.886;5.436;2024-02-23T03:43:00;0.10;;;0.10;;
48845;SDS011;34665;51.886;5.436;2024-02-23T03:45:26;0.20;;;0.20;;
48845;SDS011;34665;51.886;5.436;2024-02-23T03:47:52;0.63;;;0.50;;
48845;SDS011;34665;51.886;5.436;2024-02-23T03:50:17;1.03;;;0.60;;
48845;SDS011;34665;51.886;5.436;2024-02-23T03:52:43;0.20;;;0.20;;
48845;SDS011;34665;51.886;5.436;2024-02-23T03:55:08;0.20;;;0.20;;
48845;SDS011;34665;51.886;5.436;2024-02-23T03:57:34;0.43;;;0.43;;
48845;SDS011;34665;51.886;5.436;2024-02-23T03:59:59;0.20;;;0.20;;
48845;SDS011;34665;51.886;5.436;2024-02-23T04:02:25;0.20;;;0.20;;
48845;SDS011;34665;51.886;5.436;2024-02-23T04:04:50;0.10;;;0.10;;
48845;SDS011;34665;51.886;5.436;2024-02-23T04:07:16;1.80;;;1.65;;
48845;SDS011;34665;51.886;5.436;2024-02-23T04:09:41;0.10;;;0.10;;
48845;SDS011;34665;51.886;5.436;2024-02-23T04:12:06;0.43;;;0.43;;
48845;SDS011;34665;51.886;5.436;2024-02-23T04:14:32;0.20;;;0.20;;
48845;SDS011;34665;51.886;5.436;2024-02-23T04:17:01;0.15;;;0.15;;
48845;SDS011;34665;51.886;5.436;2024-02-23T04:19:27;0.20;;;0.20;;
48845;SDS011;34665;51.886;5.436;2024-02-23T04:21:52;3.10;;;2.20;;
48845;SDS011;34665;51.886;5.436;2024-02-23T04:24:18;0.20;;;0.20;;
48845;SDS011;34665;51.886;5.436;2024-02-23T04:26:43;0.20;;;0.20;;
48845;SDS011;34665;51.886;5.436;2024-02-23T04:29:09;0.28;;;0.28;;
48845;SDS011;34665;51.886;5.436;2024-02-23T04:31:36;0.30;;;0.30;;
48845;SDS011;34665;51.886;5.436;2024-02-23T04:34:01;0.35;;;0.35;;
48845;SDS011;34665;51.886;5.436;2024-02-23T04:36:27;0.27;;;0.27;;
48845;SDS011;34665;51.886;5.436;2024-02-23T04:38:52;0.20;;;0.20;;
48845;SDS011;34665;51.886;5.436;2024-02-23T04:41:21;0.20;;;0.20;;
48845;SDS011;34665;51.886;5.436;2024-02-23T04:43:47;0.10;;;0.10;;
48845;SDS011;34665;51.886;5.436;2024-02-23T04:46:12;0.37;;;0.37;;
48845;SDS011;34665;51.886;5.436;2024-02-23T04:48:38;0.20;;;0.20;;
48845;SDS011;34665;51.886;5.436;2024-02-23T04:51:04;4.37;;;2.70;;
48845;SDS011;34665;51.886;5.436;2024-02-23T04:53:29;2.93;;;2.73;;
48845;SDS011;34665;51.886;5.436;2024-02-23T04:55:55;0.40;;;0.40;;
48845;SDS011;34665;51.886;5.436;2024-02-23T04:58:21;3.00;;;1.47;;
48845;SDS011;34665;51.886;5.436;2024-02-23T05:00:47;0.10;;;0.10;;
48845;SDS011;34665;51.886;5.436;2024-02-23T05:03:12;17.25;;;1.17;;
48845;SDS011;34665;51.886;5.436;2024-02-23T05:05:38;0.20;;;0.20;;
48845;SDS011;34665;51.886;5.436;2024-02-23T05:08:04;1.55;;;0.93;;
48845;SDS011;34665;51.886;5.436;2024-02-23T05:10:30;0.20;;;0.20;;
48845;SDS011;34665;51.886;5.436;2024-02-23T05:12:55;0.20;;;0.20;;
48845;SDS011;34665;51.886;5.436;2024-02-23T05:15:21;0.10;;;0.10;;
48845;SDS011;34665;51.886;5.436;2024-02-23T05:17:46;0.10;;;0.10;;
48845;SDS011;34665;51.886;5.436;2024-02-23T05:20:12;17.52;;;1.98;;
48845;SDS011;34665;51.886;5.436;2024-02-23T05:22:39;0.73;;;0.73;;
48845;SDS011;34665;51.886;5.436;2024-02-23T05:25:04;0.20;;;0.20;;
48845;SDS011;34665;51.886;5.436;2024-02-23T05:27:30;0.20;;;0.20;;
48845;SDS011;34665;51.886;5.436;2024-02-23T05:29:56;0.10;;;0.10;;
48845;SDS011;34665;51.886;5.436;2024-02-23T05:32:22;0.20;;;0.20;;
48845;SDS011;34665;51.886;5.436;2024-02-23T05:34:47;0.20;;;0.20;;
48845;SDS011;34665;51.886;5.436;2024-02-23T05:37:16;0.75;;;0.70;;
48845;SDS011;34665;51.886;5.436;2024-02-23T05:39:42;0.20;;;0.20;;
48845;SDS011;34665;51.886;5.436;2024-02-23T05:42:08;0.17;;;0.17;;
48845;SDS011;34665;51.886;5.436;2024-02-23T05:44:33;0.10;;;0.10;;
48845;SDS011;34665;51.886;5.436;2024-02-23T05:46:59;0.10;;;0.10;;
48845;SDS011;34665;51.886;5.436;2024-02-23T05:49:24;0.52;;;0.52;;
48845;SDS011;34665;51.886;5.436;2024-02-23T05:51:50;0.20;;;0.20;;
48845;SDS011;34665;51.886;5.436;2024-02-23T05:54:15;0.30;;;0.30;;
48845;SDS011;34665;51.886;5.436;2024-02-23T05:56:41;0.43;;;0.43;;
48845;SDS011;34665;51.886;5.436;2024-02-23T05:59:06;0.20;;;0.20;;
48845;SDS011;34665;51.886;5.436;2024-02-23T06:01:32;0.20;;;0.20;;
48845;SDS011;34665;51.886;5.436;2024-02-23T06:03:57;0.10;;;0.10;;
48845;SDS011;34665;51.886;5.436;2024-02-23T06:06:24;0.13;;;0.13;;
48845;SDS011;34665;51.886;5.436;2024-02-23T06:08:49;0.43;;;0.43;;
48845;SDS011;34665;51.886;5.436;2024-02-23T06:13:41;0.20;;;0.20;;
48845;SDS011;34665;51.886;5.436;2024-02-23T06:16:10;0.10;;;0.10;;
48845;SDS011;34665;51.886;5.436;2024-02-23T06:18:36;0.10;;;0.10;;
48845;SDS011;34665;51.886;5.436;2024-02-23T06:21:02;0.20;;;0.20;;
48845;SDS011;34665;51.886;5.436;2024-02-23T06:23:27;0.10;;;0.10;;
48845;SDS011;34665;51.886;5.436;2024-02-23T06:25:53;0.20;;;0.20;;
48845;SDS011;34665;51.886;5.436;2024-02-23T06:28:18;0.10;;;0.10;;
48845;SDS011;34665;51.886;5.436;2024-02-23T06:30:44;0.30;;;0.30;;
48845;SDS011;34665;51.886;5.436;2024-02-23T06:33:09;0.20;;;0.20;;
48845;SDS011;34665;51.886;5.436;2024-02-23T06:35:35;10.93;;;2.63;;
48845;SDS011;34665;51.886;5.436;2024-02-23T06:38:00;8.47;;;2.83;;
48845;SDS011;34665;51.886;5.436;2024-02-23T06:42:52;9.70;;;2.67;;
48845;SDS011;34665;51.886;5.436;2024-02-23T06:45:18;9.07;;;2.97;;
48845;SDS011;34665;51.886;5.436;2024-02-23T06:47:44;8.10;;;2.70;;
48845;SDS011;34665;51.886;5.436;2024-02-23T06:50:09;8.18;;;2.70;;
48845;SDS011;34665;51.886;5.436;2024-02-23T06:52:35;10.77;;;2.40;;
48845;SDS011;34665;51.886;5.436;2024-02-23T06:55:00;11.27;;;2.93;;
48845;SDS011;34665;51.886;5.436;2024-02-23T06:57:26;12.85;;;2.88;;
48845;SDS011;34665;51.886;5.436;2024-02-23T06:59:52;12.43;;;2.47;;
48845;SDS011;34665;51.886;5.436;2024-02-23T07:02:17;11.03;;;3.53;;
48845;SDS011;34665;51.886;5.436;2024-02-23T07:04:42;10.05;;;3.20;;
48845;SDS011;34665;51.886;5.436;2024-02-23T07:07:08;11.80;;;2.60;;
48845;SDS011;34665;51.886;5.436;2024-02-23T07:09:35;9.68;;;2.28;;
48845;SDS011;34665;51.886;5.436;2024-02-23T07:12:00;7.33;;;2.20;;
48845;SDS011;34665;51.886;5.436;2024-02-23T07:14:26;5.75;;;1.58;;
48845;SDS011;34665;51.886;5.436;2024-02-23T07:16:51;7.13;;;1.63;;
48845;SDS011;34665;51.886;5.436;2024-02-23T07:19:20;14.15;;;3.33;;
48845;SDS011;34665;51.886;5.436;2024-02-23T07:21:46;13.00;;;2.30;;
48845;SDS011;34665;51.886;5.436;2024-02-23T07:24:12;5.07;;;2.00;;
48845;SDS011;34665;51.886;5.436;2024-02-23T07:26:38;13.68;;;2.63;;
48845;SDS011;34665;51.886;5.436;2024-02-23T07:29:03;7.80;;;1.63;;
48845;SDS011;34665;51.886;5.436;2024-02-23T07:31:29;8.87;;;2.17;;
48845;SDS011;34665;51.886;5.436;2024-02-23T07:33:54;11.67;;;2.00;;
48845;SDS011;34665;51.886;5.436;2024-02-23T07:36:20;7.07;;;2.40;;
48845;SDS011;34665;51.886;5.436;2024-02-23T07:38:47;10.07;;;1.77;;
48845;SDS011;34665;51.886;5.436;2024-02-23T07:41:12;11.40;;;1.43;;
48845;SDS011;34665;51.886;5.436;2024-02-23T07:43:43;15.82;;;1.70;;
48845;SDS011;34665;51.886;5.436;2024-02-23T07:46:09;6.07;;;2.10;;
48845;SDS011;34665;51.886;5.436;2024-02-23T07:48:35;9.93;;;1.73;;
48845;SDS011;34665;51.886;5.436;2024-02-23T07:51:01;6.30;;;1.83;;
48845;SDS011;34665;51.886;5.436;2024-02-23T07:53:27;8.03;;;2.13;;
48845;SDS011;34665;51.886;5.436;2024-02-23T07:55:53;8.27;;;1.07;;
48845;SDS011;34665;51.886;5.436;2024-02-23T07:58:18;13.18;;;1.80;;
48845;SDS011;34665;51.886;5.436;2024-02-23T08:00:44;9.02;;;1.50;;
48845;SDS011;34665;51.886;5.436;2024-02-23T08:03:09;9.03;;;1.77;;
48845;SDS011;34665;51.886;5.436;2024-02-23T08:08:03;8.43;;;1.70;;
48845;SDS011;34665;51.886;5.436;2024-02-23T08:12:54;10.33;;;1.80;;
48845;SDS011;34665;51.886;5.436;2024-02-23T08:15:19;6.10;;;1.55;;
48845;SDS011;34665;51.886;5.436;2024-02-23T08:17:44;6.27;;;1.70;;
48845;SDS011;34665;51.886;5.436;2024-02-23T08:20:10;15.83;;;2.80;;
48845;SDS011;34665;51.886;5.436;2024-02-23T08:22:35;11.30;;;1.50;;
48845;SDS011;34665;51.886;5.436;2024-02-23T08:25:02;7.90;;;1.48;;
48845;SDS011;34665;51.886;5.436;2024-02-23T08:27:27;12.40;;;1.83;;
48845;SDS011;34665;51.886;5.436;2024-02-23T08:29:53;11.73;;;1.80;;
48845;SDS011;34665;51.886;5.436;2024-02-23T08:32:18;9.27;;;1.30;;
48845;SDS011;34665;51.886;5.436;2024-02-23T08:34:44;10.93;;;1.77;;
48845;SDS011;34665;51.886;5.436;2024-02-23T08:37:09;12.87;;;2.23;;
48845;SDS011;34665;51.886;5.436;2024-02-23T08:39:34;8.37;;;1.60;;
48845;SDS011;34665;51.886;5.436;2024-02-23T08:42:02;10.80;;;1.57;;
48845;SDS011;34665;51.886;5.436;2024-02-23T08:44:29;8.90;;;2.00;;
48845;SDS011;34665;51.886;5.436;2024-02-23T08:46:54;11.10;;;1.50;;
48845;SDS011;34665;51.886;5.436;2024-02-23T08:49:19;7.23;;;1.60;;
48845;SDS011;34665;51.886;5.436;2024-02-23T08:51:45;13.05;;;1.48;;
48845;SDS011;34665;51.886;5.436;2024-02-23T08:54:10;9.57;;;2.00;;
48845;SDS011;34665;51.886;5.436;2024-02-23T08:56:37;11.02;;;1.67;;
48845;SDS011;34665;51.886;5.436;2024-02-23T08:59:03;8.00;;;1.40;;
48845;SDS011;34665;51.886;5.436;2024-02-23T09:01:29;9.67;;;2.83;;
48845;SDS011;34665;51.886;5.436;2024-02-23T09:03:54;13.30;;;2.33;;
48845;SDS011;34665;51.886;5.436;2024-02-23T09:06:20;9.30;;;1.45;;
48845;SDS011;34665;51.886;5.436;2024-02-23T09:08:45;7.50;;;1.57;;
48845;SDS011;34665;51.886;5.436;2024-02-23T09:11:10;13.27;;;1.83;;
48845;SDS011;34665;51.886;5.436;2024-02-23T09:13:38;7.93;;;1.30;;
48845;SDS011;34665;51.886;5.436;2024-02-23T09:16:04;4.27;;;1.17;;
48845;SDS011;34665;51.886;5.436;2024-02-23T09:18:29;9.20;;;1.27;;
48845;SDS011;34665;51.886;5.436;2024-02-23T09:20:55;6.25;;;2.30;;
48845;SDS011;34665;51.886;5.436;2024-02-23T09:23:20;12.07;;;1.57;;
48845;SDS011;34665;51.886;5.436;2024-02-23T09:25:46;7.68;;;1.38;;
48845;SDS011;34665;51.886;5.436;2024-02-23T09:28:11;5.63;;;1.60;;
48845;SDS011;34665;51.886;5.436;2024-02-23T09:30:37;9.48;;;2.58;;
48845;SDS011;34665;51.886;5.436;2024-02-23T09:33:03;19.25;;;2.13;;
48845;SDS011;34665;51.886;5.436;2024-02-23T09:35:28;12.80;;;1.73;;
48845;SDS011;34665;51.886;5.436;2024-02-23T09:37:54;8.77;;;2.00;;
48845;SDS011;34665;51.886;5.436;2024-02-23T09:40:20;7.47;;;1.50;;
48845;SDS011;34665;51.886;5.436;2024-02-23T09:42:48;5.40;;;1.73;;
48845;SDS011;34665;51.886;5.436;2024-02-23T09:45:16;10.93;;;1.90;;
48845;SDS011;34665;51.886;5.436;2024-02-23T09:47:42;5.80;;;1.70;;
48845;SDS011;34665;51.886;5.436;2024-02-23T09:52:34;8.80;;;1.90;;
48845;SDS011;34665;51.886;5.436;2024-02-23T09:55:00;9.57;;;1.70;;
48845;SDS011;34665;51.886;5.436;2024-02-23T09:57:25;4.75;;;1.30;;
48845;SDS011;34665;51.886;5.436;2024-02-23T09:59:51;7.13;;;1.70;;
48845;SDS011;34665;51.886;5.436;2024-02-23T10:02:17;12.03;;;2.83;;
48845;SDS011;34665;51.886;5.436;2024-02-23T10:04:42;6.33;;;1.80;;
48845;SDS011;34665;51.886;5.436;2024-02-23T10:07:08;6.18;;;1.27;;
48845;SDS011;34665;51.886;5.436;2024-02-23T10:09:34;11.30;;;2.40;;
48845;SDS011;34665;51.886;5.436;2024-02-23T10:11:59;13.83;;;2.53;;
48845;SDS011;34665;51.886;5.436;2024-02-23T10:14:25;11.30;;;2.20;;
48845;SDS011;34665;51.886;5.436;2024-02-23T10:16:50;5.27;;;1.50;;
48845;SDS011;34665;51.886;5.436;2024-02-23T10:19:19;7.60;;;1.93;;
48845;SDS011;34665;51.886;5.436;2024-02-23T10:21:45;10.95;;;1.92;;
48845;SDS011;34665;51.886;5.436;2024-02-23T10:24:10;7.40;;;2.20;;
48845;SDS011;34665;51.886;5.436;2024-02-23T10:26:36;5.60;;;1.90;;
48845;SDS011;34665;51.886;5.436;2024-02-23T10:29:01;7.33;;;2.47;;
48845;SDS011;34665;51.886;5.436;2024-02-23T10:31:27;10.90;;;2.25;;
48845;SDS011;34665;51.886;5.436;2024-02-23T10:33:53;11.60;;;2.60;;
48845;SDS011;34665;51.886;5.436;2024-02-23T10:36:19;14.48;;;2.65;;
48845;SDS011;34665;51.886;5.436;2024-02-23T10:38:47;5.87;;;1.50;;
48845;SDS011;34665;51.886;5.436;2024-02-23T10:41:14;12.40;;;2.23;;
48845;SDS011;34665;51.886;5.436;2024-02-23T10:43:46;11.27;;;2.78;;
48845;SDS011;34665;51.886;5.436;2024-02-23T10:46:12;5.10;;;2.13;;
48845;SDS011;34665;51.886;5.436;2024-02-23T10:48:41;4.27;;;1.80;;
48845;SDS011;34665;51.886;5.436;2024-02-23T10:51:07;6.22;;;1.60;;
48845;SDS011;34665;51.886;5.436;2024-02-23T10:53:32;8.38;;;1.95;;
48845;SDS011;34665;51.886;5.436;2024-02-23T10:56:00;13.73;;;2.30;;
48845;SDS011;34665;51.886;5.436;2024-02-23T10:58:25;8.77;;;1.87;;
48845;SDS011;34665;51.886;5.436;2024-02-23T11:00:51;6.85;;;2.03;;
48845;SDS011;34665;51.886;5.436;2024-02-23T11:03:17;4.22;;;1.77;;
48845;SDS011;34665;51.886;5.436;2024-02-23T11:05:46;8.13;;;2.97;;
48845;SDS011;34665;51.886;5.436;2024-02-23T11:08:12;8.40;;;1.70;;
48845;SDS011;34665;51.886;5.436;2024-02-23T11:10:42;10.77;;;1.87;;
48845;SDS011;34665;51.886;5.436;2024-02-23T11:13:08;6.77;;;1.77;;
48845;SDS011;34665;51.886;5.436;2024-02-23T11:15:34;5.57;;;1.60;;
48845;SDS011;34665;51.886;5.436;2024-02-23T11:18:20;7.97;;;2.20;;
48845;SDS011;34665;51.886;5.436;2024-02-23T11:20:53;5.53;;;2.67;;
48845;SDS011;34665;51.886;5.436;2024-02-23T11:23:18;5.93;;;2.20;;
48845;SDS011;34665;51.886;5.436;2024-02-23T11:25:58;8.53;;;2.17;;
48845;SDS011;34665;51.886;5.436;2024-02-23T11:28:26;8.13;;;2.03;;
48845;SDS011;34665;51.886;5.436;2024-02-23T11:30:52;6.20;;;1.90;;
48845;SDS011;34665;51.886;5.436;2024-02-23T11:33:34;7.03;;;1.90;;
48845;SDS011;34665;51.886;5.436;2024-02-23T11:36:06;10.40;;;2.60;;
48845;SDS011;34665;51.886;5.436;2024-02-23T11:38:32;8.93;;;2.50;;
48845;SDS011;34665;51.886;5.436;2024-02-23T11:40:57;8.73;;;2.07;;
48845;SDS011;34665;51.886;5.436;2024-02-23T11:43:23;7.87;;;2.83;;
48845;SDS011;34665;51.886;5.436;2024-02-23T11:45:48;4.53;;;2.07;;
48845;SDS011;34665;51.886;5.436;2024-02-23T11:48:14;4.18;;;2.50;;
48845;SDS011;34665;51.886;5.436;2024-02-23T11:50:39;8.10;;;2.53;;
48845;SDS011;34665;51.886;5.436;2024-02-23T11:53:05;8.50;;;2.17;;
48845;SDS011;34665;51.886;5.436;2024-02-23T11:55:30;13.77;;;1.92;;
48845;SDS011;34665;51.886;5.436;2024-02-23T11:57:56;8.03;;;1.73;;
48845;SDS011;34665;51.886;5.436;2024-02-23T12:00:23;8.20;;;1.90;;
48845;SDS011;34665;51.886;5.436;2024-02-23T12:02:49;6.30;;;2.17;;
48845;SDS011;34665;51.886;5.436;2024-02-23T12:05:15;6.07;;;1.85;;
48845;SDS011;34665;51.886;5.436;2024-02-23T12:07:41;4.13;;;2.05;;
48845;SDS011;34665;51.886;5.436;2024-02-23T12:10:07;6.93;;;1.80;;
48845;SDS011;34665;51.886;5.436;2024-02-23T12:12:32;7.53;;;2.17;;
48845;SDS011;34665;51.886;5.436;2024-02-23T12:14:58;10.15;;;1.70;;
48845;SDS011;34665;51.886;5.436;2024-02-23T12:17:24;7.45;;;1.65;;
48845;SDS011;34665;51.886;5.436;2024-02-23T12:20:01;7.43;;;1.73;;
48845;SDS011;34665;51.886;5.436;2024-02-23T12:22:27;5.57;;;1.70;;
48845;SDS011;34665;51.886;5.436;2024-02-23T12:24:53;4.23;;;2.20;;
48845;SDS011;34665;51.886;5.436;2024-02-23T12:27:22;5.93;;;1.70;;
48845;SDS011;34665;51.886;5.436;2024-02-23T12:29:51;8.63;;;1.57;;
48845;SDS011;34665;51.886;5.436;2024-02-23T12:32:19;3.40;;;1.70;;
48845;SDS011;34665;51.886;5.436;2024-02-23T12:34:45;5.67;;;1.63;;
48845;SDS011;34665;51.886;5.436;2024-02-23T12:37:10;3.47;;;1.90;;
48845;SDS011;34665;51.886;5.436;2024-02-23T12:39:36;2.75;;;1.30;;
48845;SDS011;34665;51.886;5.436;2024-02-23T12:42:02;5.40;;;1.33;;
48845;SDS011;34665;51.886;5.436;2024-02-23T12:44:27;5.22;;;1.10;;
48845;SDS011;34665;51.886;5.436;2024-02-23T12:46:52;6.27;;;1.33;;
48845;SDS011;34665;51.886;5.436;2024-02-23T12:49:18;4.13;;;1.57;;
48845;SDS011;34665;51.886;5.436;2024-02-23T12:51:43;4.43;;;1.50;;
48845;SDS011;34665;51.886;5.436;2024-02-23T12:54:08;6.78;;;2.38;;
48845;SDS011;34665;51.886;5.436;2024-02-23T12:56:34;6.95;;;1.65;;
48845;SDS011;34665;51.886;5.436;2024-02-23T12:59:00;7.45;;;1.75;;
48845;SDS011;34665;51.886;5.436;2024-02-23T13:01:26;3.63;;;1.95;;
48845;SDS011;34665;51.886;5.436;2024-02-23T13:03:51;3.47;;;1.33;;
48845;SDS011;34665;51.886;5.436;2024-02-23T13:06:17;4.38;;;1.55;;
48845;SDS011;34665;51.886;5.436;2024-02-23T13:08:43;7.67;;;1.50;;
48845;SDS011;34665;51.886;5.436;2024-02-23T13:11:08;4.43;;;1.10;;
48845;SDS011;34665;51.886;5.436;2024-02-23T13:13:35;3.30;;;1.70;;
48845;SDS011;34665;51.886;5.436;2024-02-23T13:16:00;10.83;;;1.40;;
48845;SDS011;34665;51.886;5.436;2024-02-23T13:18:26;5.28;;;1.40;;
48845;SDS011;34665;51.886;5.436;2024-02-23T13:20:51;5.73;;;1.57;;
48845;SDS011;34665;51.886;5.436;2024-02-23T13:23:17;4.60;;;1.92;;
48845;SDS011;34665;51.886;5.436;2024-02-23T13:25:42;5.40;;;1.85;;
48845;SDS011;34665;51.886;5.436;2024-02-23T13:28:08;2.00;;;1.13;;
48845;SDS011;34665;51.886;5.436;2024-02-23T13:30:34;4.17;;;1.57;;
48845;SDS011;34665;51.886;5.436;2024-02-23T13:32:59;6.22;;;1.77;;
48845;SDS011;34665;51.886;5.436;2024-02-23T13:35:28;7.43;;;1.63;;
48845;SDS011;34665;51.886;5.436;2024-02-23T13:37:53;7.53;;;1.30;;
48845;SDS011;34665;51.886;5.436;2024-02-23T13:40:19;9.70;;;1.57;;
48845;SDS011;34665;51.886;5.436;2024-02-23T13:42:44;5.75;;;1.05;;
48845;SDS011;34665;51.886;5.436;2024-02-23T13:45:19;3.50;;;1.60;;
48845;SDS011;34665;51.886;5.436;2024-02-23T13:47:55;4.93;;;1.47;;
48845;SDS011;34665;51.886;5.436;2024-02-23T13:50:20;5.23;;;1.73;;
48845;SDS011;34665;51.886;5.436;2024-02-23T13:52:47;5.63;;;1.00;;
48845;SDS011;34665;51.886;5.436;2024-02-23T13:55:13;3.92;;;1.20;;
48845;SDS011;34665;51.886;5.436;2024-02-23T13:57:39;6.65;;;1.42;;
48845;SDS011;34665;51.886;5.436;2024-02-23T14:00:04;2.73;;;1.30;;
48845;SDS011;34665;51.886;5.436;2024-02-23T14:02:36;6.03;;;1.47;;
48845;SDS011;34665;51.886;5.436;2024-02-23T14:05:02;3.50;;;0.83;;
48845;SDS011;34665;51.886;5.436;2024-02-23T14:07:35;5.73;;;1.20;;
48845;SDS011;34665;51.886;5.436;2024-02-23T14:10:01;3.40;;;1.20;;
48845;SDS011;34665;51.886;5.436;2024-02-23T14:12:27;4.17;;;1.30;;
48845;SDS011;34665;51.886;5.436;2024-02-23T14:14:53;5.80;;;1.30;;
48845;SDS011;34665;51.886;5.436;2024-02-23T14:17:18;8.30;;;1.23;;
48845;SDS011;34665;51.886;5.436;2024-02-23T14:19:44;5.57;;;1.60;;
48845;SDS011;34665;51.886;5.436;2024-02-23T14:22:09;5.77;;;1.23;;
48845;SDS011;34665;51.886;5.436;2024-02-23T14:24:35;7.25;;;1.70;;
48845;SDS011;34665;51.886;5.436;2024-02-23T14:27:00;11.05;;;1.35;;
48845;SDS011;34665;51.886;5.436;2024-02-23T14:29:26;5.53;;;1.63;;
48845;SDS011;34665;51.886;5.436;2024-02-23T14:31:51;6.17;;;1.30;;
48845;SDS011;34665;51.886;5.436;2024-02-23T14:34:17;10.57;;;1.40;;
48845;SDS011;34665;51.886;5.436;2024-02-23T14:36:42;7.07;;;1.30;;
48845;SDS011;34665;51.886;5.436;2024-02-23T14:39:09;4.60;;;1.10;;
48845;SDS011;34665;51.886;5.436;2024-02-23T14:41:35;4.32;;;1.98;;
48845;SDS011;34665;51.886;5.436;2024-02-23T14:44:00;4.37;;;1.27;;
48845;SDS011;34665;51.886;5.436;2024-02-23T14:46:25;4.50;;;1.17;;
48845;SDS011;34665;51.886;5.436;2024-02-23T14:48:50;4.20;;;1.37;;
48845;SDS011;34665;51.886;5.436;2024-02-23T14:51:16;5.35;;;1.25;;
48845;SDS011;34665;51.886;5.436;2024-02-23T14:53:42;10.55;;;1.30;;